createdAt,value
2022-10-14T00:01:19.968Z,39.90
2022-10-14T00:03:48.139Z,43.63
2022-10-14T00:06:29.747Z,42.60
2022-10-14T00:08:59.727Z,38.75
2022-10-14T00:11:30.607Z,46.20
2022-10-14T00:14:01.285Z,52.28
2022-10-14T00:16:32.333Z,48.70
2022-10-14T00:19:01.282Z,45.45
2022-10-14T00:21:29.904Z,42.42
2022-10-14T00:23:57.992Z,51.28
2022-10-14T00:26:32.277Z,43.33
2022-10-14T00:29:00.743Z,42.85
2022-10-14T00:31:32.731Z,42.67
2022-10-14T00:34:00.489Z,44.55
2022-10-14T00:36:27.913Z,53.22
2022-10-14T00:38:55.645Z,50.22
2022-10-14T00:41:27.590Z,46.70
2022-10-14T00:44:03.023Z,52.28
2022-10-14T00:46:42.213Z,42.03
2022-10-14T00:49:17.844Z,44.65
2022-10-14T00:51:58.659Z,44.03
2022-10-14T00:54:30.547Z,44.53
2022-10-14T00:56:59.058Z,42.30
2022-10-14T00:59:26.798Z,55.13
2022-10-14T01:01:54.311Z,49.15
2022-10-14T01:04:22.185Z,49.80
2022-10-14T01:07:08.348Z,49.83
2022-10-14T01:09:50.644Z,47.45
2022-10-14T01:12:36.570Z,46.72
2022-10-14T01:15:39.344Z,44.00
2022-10-14T01:18:15.344Z,42.78
2022-10-14T01:21:01.375Z,48.25
2022-10-14T01:23:40.754Z,47.92
2022-10-14T01:26:26.617Z,42.08
2022-10-14T01:29:23.804Z,45.60
2022-10-14T01:32:04.312Z,48.20
2022-10-14T01:34:47.347Z,49.50
2022-10-14T01:37:21.794Z,50.90
2022-10-14T01:39:55.466Z,52.67
2022-10-14T01:42:31.107Z,44.28
2022-10-14T01:45:19.014Z,44.13
2022-10-14T01:47:50.304Z,53.95
2022-10-14T01:50:21.554Z,47.60
2022-10-14T01:53:03.970Z,54.92
2022-10-14T01:55:36.913Z,53.45
2022-10-14T01:58:06.682Z,53.30
2022-10-14T02:00:35.180Z,47.42
2022-10-14T02:03:02.890Z,46.47
2022-10-14T02:05:49.040Z,56.30
2022-10-14T02:08:45.064Z,55.83
2022-10-14T02:11:18.059Z,47.45
2022-10-14T02:13:55.948Z,51.33
2022-10-14T02:17:00.385Z,50.20
2022-10-14T02:20:03.572Z,48.60
2022-10-14T02:22:45.312Z,51.80
2022-10-14T02:25:20.091Z,53.58
2022-10-14T02:27:49.382Z,47.28
2022-10-14T02:30:17.943Z,46.25
2022-10-14T02:32:47.135Z,48.05
2022-10-14T02:35:18.191Z,49.78
2022-10-14T02:37:48.685Z,60.42
2022-10-14T02:40:41.678Z,56.28
2022-10-14T02:43:10.891Z,49.28
2022-10-14T02:45:43.060Z,53.53
2022-10-14T02:50:39.248Z,43.35
2022-10-14T02:53:08.307Z,59.35
2022-10-14T02:55:35.739Z,58.20
2022-10-14T02:58:03.483Z,64.20
2022-10-14T03:00:30.891Z,51.53
2022-10-14T03:02:58.649Z,56.22
2022-10-14T03:05:28.542Z,49.85
2022-10-14T03:07:56.357Z,52.47
2022-10-14T03:10:25.597Z,45.25
2022-10-14T03:12:53.118Z,46.58
2022-10-14T03:15:27.926Z,47.72
2022-10-14T03:17:55.540Z,47.15
2022-10-14T03:20:31.394Z,52.35
2022-10-14T03:22:59.916Z,53.55
2022-10-14T03:25:29.237Z,51.55
2022-10-14T03:28:02.628Z,54.78
2022-10-14T03:30:43.546Z,51.22
2022-10-14T03:33:20.419Z,46.97
2022-10-14T03:36:10.649Z,49.15
2022-10-14T03:38:45.237Z,45.78
2022-10-14T03:41:21.961Z,45.63
2022-10-14T03:43:49.401Z,50.97
2022-10-14T03:46:17.577Z,44.83
2022-10-14T03:48:45.041Z,53.08
2022-10-14T03:51:13.459Z,51.20
2022-10-14T03:53:42.552Z,50.53
2022-10-14T03:56:11.102Z,50.28
2022-10-14T03:58:38.553Z,50.65
2022-10-14T04:01:11.767Z,51.90
2022-10-14T04:03:59.097Z,59.50
2022-10-14T04:06:28.621Z,65.65
2022-10-14T04:08:58.448Z,65.30
2022-10-14T04:11:31.476Z,51.47
2022-10-14T04:14:04.648Z,47.50
2022-10-14T04:16:35.996Z,52.67
2022-10-14T04:19:08.722Z,51.08
2022-10-14T04:21:36.239Z,49.60
2022-10-14T04:24:08.037Z,61.50
2022-10-14T04:26:46.394Z,52.70
2022-10-14T04:29:24.165Z,55.10
2022-10-14T04:31:56.972Z,56.78
2022-10-14T04:34:24.447Z,55.17
2022-10-14T04:36:54.128Z,48.70
2022-10-14T04:39:37.472Z,57.95
2022-10-14T04:42:06.035Z,52.00
2022-10-14T04:44:34.436Z,52.63
2022-10-14T04:47:03.103Z,54.28
2022-10-14T04:49:31.118Z,51.15
2022-10-14T04:52:06.856Z,50.60
2022-10-14T04:54:46.893Z,52.17
2022-10-14T04:57:14.487Z,51.67
2022-10-14T04:59:46.286Z,57.72
2022-10-14T05:02:20.533Z,56.28
2022-10-14T05:04:52.611Z,54.92
2022-10-14T05:07:20.116Z,56.75
2022-10-14T05:12:36.103Z,63.15
2022-10-14T05:15:05.421Z,55.15
2022-10-14T05:17:53.030Z,57.97
2022-10-14T05:20:25.708Z,57.58
2022-10-14T05:22:56.128Z,54.85
2022-10-14T05:25:23.694Z,62.72
2022-10-14T05:27:53.670Z,54.97
2022-10-14T05:30:21.582Z,54.63
2022-10-14T05:32:52.717Z,52.60
2022-10-14T05:35:39.787Z,49.60
2022-10-14T05:38:09.089Z,55.67
2022-10-14T05:40:40.286Z,58.33
2022-10-14T05:43:07.744Z,51.00
2022-10-14T05:45:37.909Z,53.80
2022-10-14T05:48:05.742Z,55.50
2022-10-14T05:50:33.183Z,62.20
2022-10-14T05:53:05.625Z,50.42
2022-10-14T05:55:41.868Z,59.45
2022-10-14T05:58:09.796Z,55.83
2022-10-14T06:00:40.859Z,53.95
2022-10-14T06:05:41.273Z,51.05
2022-10-14T06:08:09.194Z,62.13
2022-10-14T06:10:39.060Z,63.80
2022-10-14T06:13:06.634Z,62.40
2022-10-14T06:15:36.996Z,57.72
2022-10-14T06:18:04.713Z,59.67
2022-10-14T06:20:33.329Z,62.75
2022-10-14T06:23:00.810Z,68.65
2022-10-14T06:25:29.371Z,69.82
2022-10-14T06:28:02.510Z,57.63
2022-10-14T06:30:30.000Z,58.80
2022-10-14T06:32:57.480Z,62.15
2022-10-14T06:35:24.956Z,58.17
2022-10-14T06:37:52.370Z,53.85
2022-10-14T06:40:20.127Z,56.63
2022-10-14T06:42:47.669Z,62.38
2022-10-14T06:45:15.112Z,48.97
2022-10-14T06:47:42.737Z,56.33
2022-10-14T06:50:10.224Z,53.30
2022-10-14T06:52:37.968Z,61.65
2022-10-14T06:55:05.957Z,58.17
2022-10-14T06:57:33.597Z,54.70
2022-10-14T07:00:01.026Z,52.10
2022-10-14T07:02:28.408Z,49.88
2022-10-14T07:04:55.769Z,60.58
2022-10-14T07:07:23.237Z,55.70
2022-10-14T07:09:50.918Z,62.10
2022-10-14T07:12:18.291Z,56.28
2022-10-14T07:14:47.490Z,54.90
2022-10-14T07:17:14.862Z,53.13
2022-10-14T07:19:42.284Z,60.85
2022-10-14T07:22:09.816Z,56.35
2022-10-14T07:24:37.195Z,59.90
2022-10-14T07:27:04.675Z,66.68
2022-10-14T07:29:33.059Z,62.95
2022-10-14T07:32:00.488Z,62.40
2022-10-14T07:34:27.930Z,57.72
2022-10-14T07:36:55.363Z,54.63
2022-10-14T07:39:22.789Z,60.85
2022-10-14T07:41:50.185Z,59.33
2022-10-14T07:44:17.719Z,53.97
2022-10-14T07:46:45.903Z,62.50
2022-10-14T07:49:18.707Z,59.90
2022-10-14T07:51:46.888Z,58.30
2022-10-14T07:54:22.356Z,56.80
2022-10-14T07:56:50.582Z,54.47
2022-10-14T07:59:19.792Z,57.97
2022-10-14T08:01:52.133Z,55.47
2022-10-14T08:06:48.594Z,54.92
2022-10-14T08:09:16.866Z,58.72
2022-10-14T08:11:45.096Z,58.85
2022-10-14T08:14:13.007Z,55.05
2022-10-14T08:16:40.754Z,53.78
2022-10-14T08:19:14.294Z,61.53
2022-10-14T08:21:43.179Z,52.47
2022-10-14T08:24:11.489Z,54.08
2022-10-14T08:26:48.166Z,55.38
2022-10-14T08:29:15.719Z,57.88
2022-10-14T08:31:43.102Z,55.05
2022-10-14T08:34:11.202Z,52.40
2022-10-14T08:36:38.674Z,52.88
2022-10-14T08:39:07.072Z,42.97
2022-10-14T08:41:56.002Z,46.80
2022-10-14T08:44:54.661Z,53.08
2022-10-14T08:47:26.857Z,54.45
2022-10-14T08:50:02.429Z,61.42
2022-10-14T08:52:44.674Z,46.25
2022-10-14T08:55:15.075Z,45.53
2022-10-14T08:57:51.788Z,56.47
2022-10-14T09:00:20.443Z,57.28
2022-10-14T09:02:52.373Z,52.80
2022-10-14T09:05:23.392Z,51.30
2022-10-14T09:07:53.708Z,56.03
2022-10-14T09:10:40.209Z,50.45
2022-10-14T09:13:18.812Z,47.67
2022-10-14T09:15:50.327Z,49.70
2022-10-14T09:18:32.707Z,50.57
2022-10-14T09:21:01.744Z,54.95
2022-10-14T09:23:29.231Z,48.25
2022-10-14T09:26:03.929Z,54.45
2022-10-14T09:28:38.996Z,55.25
2022-10-14T09:31:11.577Z,54.50
2022-10-14T09:33:42.287Z,51.50
2022-10-14T09:36:18.757Z,58.42
2022-10-14T09:38:52.590Z,56.55
2022-10-14T09:41:31.109Z,56.05
2022-10-14T09:44:22.497Z,50.97
2022-10-14T09:47:09.325Z,49.28
2022-10-14T09:49:42.688Z,51.88
2022-10-14T09:52:24.916Z,49.42
2022-10-14T09:55:01.471Z,50.92
2022-10-14T09:57:29.168Z,46.75
2022-10-14T10:00:00.787Z,56.42
2022-10-14T10:02:42.653Z,50.28
2022-10-14T10:05:22.539Z,58.90
2022-10-14T10:08:11.191Z,48.67
2022-10-14T10:10:38.808Z,56.28
2022-10-14T10:13:31.997Z,62.35
2022-10-14T10:16:01.399Z,54.00
2022-10-14T10:18:28.977Z,61.63
2022-10-14T10:21:17.791Z,56.90
2022-10-14T10:24:03.862Z,58.22
2022-10-14T10:26:34.007Z,57.92
2022-10-14T10:29:04.751Z,65.45
2022-10-14T10:34:31.468Z,64.05
2022-10-14T10:37:49.370Z,57.63
2022-10-14T10:40:17.197Z,59.28
2022-10-14T10:43:02.744Z,61.60
2022-10-14T10:46:03.281Z,64.72
2022-10-14T10:48:47.534Z,69.70
2022-10-14T10:51:39.660Z,68.57
2022-10-14T10:54:17.296Z,66.80
2022-10-14T10:56:56.218Z,70.05
2022-10-14T10:59:48.492Z,67.53
2022-10-14T11:02:22.138Z,66.90
2022-10-14T11:05:07.907Z,59.83
2022-10-14T11:08:17.212Z,66.18
2022-10-14T11:11:15.179Z,74.45
2022-10-14T11:14:12.853Z,62.95
2022-10-14T11:16:44.329Z,88.30
2022-10-14T11:19:17.949Z,79.60
2022-10-14T11:22:05.337Z,77.00
2022-10-14T11:24:46.903Z,76.43
2022-10-14T11:27:23.887Z,82.63
2022-10-14T11:30:15.487Z,101.03
2022-10-14T11:33:03.977Z,73.60
2022-10-14T11:35:51.030Z,89.38
2022-10-14T11:39:03.414Z,83.85
2022-10-14T11:42:01.474Z,74.10
2022-10-14T11:44:39.080Z,74.20
2022-10-14T11:47:32.632Z,73.53
2022-10-14T11:49:59.993Z,76.38
2022-10-14T11:52:37.645Z,75.75
2022-10-14T11:55:14.654Z,70.63
2022-10-14T11:57:50.051Z,70.75
2022-10-14T12:00:23.046Z,66.90
2022-10-14T12:03:32.080Z,76.53
2022-10-14T12:06:17.722Z,56.25
2022-10-14T12:08:55.333Z,60.35
2022-10-14T12:11:40.281Z,64.18
2022-10-14T12:14:08.339Z,68.53
2022-10-14T12:16:40.910Z,69.60
2022-10-14T12:19:10.866Z,70.10
2022-10-14T12:22:08.867Z,65.25
2022-10-14T12:24:45.404Z,61.85
2022-10-14T12:27:15.402Z,64.10
2022-10-14T12:29:50.047Z,69.80
2022-10-14T12:32:19.682Z,60.33
2022-10-14T12:34:58.802Z,56.13
2022-10-14T12:37:34.931Z,55.08
2022-10-14T12:40:02.987Z,58.85
2022-10-14T12:42:32.557Z,54.75
2022-10-14T12:45:19.494Z,62.63
2022-10-14T12:47:47.300Z,68.00
2022-10-14T12:50:29.402Z,59.03
2022-10-14T12:53:02.679Z,54.50
2022-10-14T12:55:57.775Z,62.63
2022-10-14T12:59:03.627Z,63.40
2022-10-14T13:01:35.290Z,59.85
2022-10-14T13:04:17.491Z,59.28
2022-10-14T13:07:28.397Z,53.65
2022-10-14T13:10:27.638Z,52.15
2022-10-14T13:12:55.170Z,54.55
2022-10-14T13:15:49.995Z,55.47
2022-10-14T13:18:42.815Z,57.30
2022-10-14T13:21:20.440Z,60.17
2022-10-14T13:23:51.076Z,59.00
2022-10-14T13:26:35.008Z,49.53
2022-10-14T13:29:08.890Z,53.30
2022-10-14T13:31:46.435Z,52.70
2022-10-14T13:34:29.587Z,53.80
2022-10-14T13:37:02.757Z,57.13
2022-10-14T13:39:33.355Z,56.15
2022-10-14T13:42:02.008Z,53.08
2022-10-14T13:44:29.797Z,55.10
2022-10-14T13:47:01.433Z,53.55
2022-10-14T13:49:36.045Z,57.65
2022-10-14T13:52:07.897Z,53.25
2022-10-14T13:54:35.604Z,47.17
2022-10-14T14:02:51.485Z,52.75
2022-10-14T14:05:26.609Z,50.08
2022-10-14T14:11:14.547Z,44.17
2022-10-14T14:14:08.951Z,49.83
2022-10-14T14:16:40.863Z,49.45
2022-10-14T14:19:26.929Z,44.65
2022-10-14T14:22:13.972Z,50.28
2022-10-14T14:24:41.470Z,51.42
2022-10-14T14:27:24.245Z,55.85
2022-10-14T14:29:53.705Z,51.85
2022-10-14T14:32:28.679Z,61.95
2022-10-14T14:34:56.850Z,69.25
2022-10-14T14:37:53.386Z,53.72
2022-10-14T14:40:27.677Z,60.40
2022-10-14T14:43:02.048Z,59.00
2022-10-14T14:45:51.181Z,69.25
2022-10-14T14:48:19.120Z,66.15
2022-10-14T14:50:48.866Z,56.70
2022-10-14T14:53:20.565Z,58.92
2022-10-14T14:55:54.021Z,58.33
2022-10-14T14:58:38.557Z,61.78
2022-10-14T15:01:27.771Z,63.75
2022-10-14T15:04:12.548Z,74.05
2022-10-14T15:06:51.822Z,74.63
2022-10-14T15:09:30.267Z,74.82
2022-10-14T15:12:00.222Z,84.35
2022-10-14T15:14:48.241Z,78.15
2022-10-14T15:17:46.769Z,86.70
2022-10-14T15:20:30.590Z,80.13
2022-10-14T15:22:58.127Z,80.55
2022-10-14T15:25:33.046Z,83.63
2022-10-14T15:28:02.166Z,92.07
2022-10-14T15:30:34.960Z,86.97
2022-10-14T15:33:13.728Z,80.60
2022-10-14T15:35:41.823Z,82.13
2022-10-14T15:38:16.102Z,85.57
2022-10-14T15:40:45.645Z,88.28
2022-10-14T15:43:17.612Z,86.88
2022-10-14T15:46:11.688Z,81.97
2022-10-14T15:48:48.904Z,87.07
2022-10-14T15:51:19.777Z,91.38
2022-10-14T15:53:49.101Z,90.78
2022-10-14T15:56:17.281Z,90.30
2022-10-14T15:58:44.738Z,89.93
2022-10-14T16:01:17.681Z,88.80
2022-10-14T16:03:45.151Z,89.68
2022-10-14T16:06:15.621Z,90.88
2022-10-14T16:08:43.266Z,88.82
2022-10-14T16:11:22.285Z,86.63
2022-10-14T16:13:49.829Z,96.68
2022-10-14T16:16:32.909Z,90.55
2022-10-14T16:19:03.285Z,86.78
2022-10-14T16:21:31.304Z,95.78
2022-10-14T16:23:59.234Z,94.75
2022-10-14T16:26:26.986Z,93.68
2022-10-14T16:28:54.565Z,88.25
2022-10-14T16:31:22.021Z,59.17
2022-10-14T16:33:56.854Z,59.90
2022-10-14T16:36:26.215Z,51.03
2022-10-14T16:38:55.684Z,55.83
2022-10-14T16:41:25.056Z,44.28
2022-10-14T16:43:52.415Z,51.20
2022-10-14T16:46:19.801Z,44.38
2022-10-14T16:48:48.423Z,44.05
2022-10-14T16:51:15.930Z,44.60
2022-10-14T16:53:48.772Z,42.67
2022-10-14T16:56:39.546Z,42.92
2022-10-14T16:59:08.212Z,43.90
2022-10-14T17:01:35.805Z,45.75
2022-10-14T17:04:04.306Z,41.03
2022-10-14T17:06:32.205Z,45.05
2022-10-14T17:08:59.632Z,48.88
2022-10-14T17:11:29.761Z,43.63
2022-10-14T17:14:00.327Z,47.95
2022-10-14T17:16:28.733Z,45.33
2022-10-14T17:18:58.272Z,46.05
2022-10-14T17:21:29.398Z,51.03
2022-10-14T17:24:03.563Z,53.67
2022-10-14T17:26:33.112Z,52.00
2022-10-14T17:29:00.837Z,50.05
2022-10-14T17:31:29.087Z,56.15
2022-10-14T17:33:56.626Z,50.55
2022-10-14T17:36:30.724Z,52.08
2022-10-14T17:38:59.400Z,47.50
2022-10-14T17:41:29.535Z,49.80
2022-10-14T17:43:58.766Z,49.78
2022-10-14T17:46:27.143Z,47.08
2022-10-14T17:48:56.773Z,42.95
2022-10-14T17:51:25.539Z,48.00
2022-10-14T17:53:58.723Z,49.63
2022-10-14T17:56:27.726Z,41.45
2022-10-14T17:58:57.083Z,47.33
2022-10-14T18:01:37.196Z,44.53
2022-10-14T18:04:11.601Z,44.10
2022-10-14T18:06:39.403Z,41.47
2022-10-14T18:09:09.071Z,44.88
2022-10-14T18:12:07.697Z,51.30
2022-10-14T18:14:30.807Z,46.17
2022-10-14T18:16:59.428Z,49.63
2022-10-14T18:19:27.195Z,55.90
2022-10-14T18:21:54.665Z,46.35
2022-10-14T18:24:22.674Z,48.88
2022-10-14T18:26:51.076Z,51.30
2022-10-14T18:29:18.478Z,53.60
2022-10-14T18:31:45.973Z,58.08
2022-10-14T18:34:14.051Z,52.60
2022-10-14T18:36:41.508Z,57.42
2022-10-14T18:39:11.646Z,55.63
2022-10-14T18:41:39.651Z,63.28
2022-10-14T18:44:07.541Z,64.95
2022-10-14T18:46:36.952Z,60.30
2022-10-14T18:49:06.634Z,59.80
2022-10-14T18:51:37.589Z,65.32
2022-10-14T18:54:14.384Z,62.00
2022-10-14T18:56:42.344Z,57.80
2022-10-14T18:59:13.191Z,56.95
2022-10-14T19:01:41.126Z,68.15
2022-10-14T19:04:13.029Z,64.85
2022-10-14T19:06:41.623Z,74.13
2022-10-14T19:09:12.580Z,62.88
2022-10-14T19:11:41.130Z,73.38
2022-10-14T19:14:09.987Z,74.53
2022-10-14T19:16:38.855Z,64.20
2022-10-14T19:19:15.239Z,69.53
2022-10-14T19:21:48.179Z,59.67
2022-10-14T19:24:16.019Z,65.10
2022-10-14T19:26:45.039Z,65.43
2022-10-14T19:29:14.568Z,58.25
2022-10-14T19:31:43.734Z,63.55
2022-10-14T19:34:14.561Z,67.32
2022-10-14T19:36:43.464Z,66.57
2022-10-14T19:39:14.650Z,68.13
2022-10-14T19:41:46.565Z,63.08
2022-10-14T19:44:15.931Z,65.47
2022-10-14T19:46:44.982Z,59.83
2022-10-14T19:49:14.223Z,54.70
2022-10-14T19:51:41.892Z,57.15
2022-10-14T19:54:11.889Z,57.63
2022-10-14T19:56:39.657Z,58.53
2022-10-14T19:59:07.176Z,63.15
2022-10-14T20:01:34.961Z,63.78
2022-10-14T20:04:02.983Z,75.90
2022-10-14T20:06:33.786Z,70.15
2022-10-14T20:09:01.661Z,63.67
2022-10-14T20:11:29.489Z,67.78
2022-10-14T20:13:57.260Z,65.68
2022-10-14T20:16:25.200Z,65.72
2022-10-14T20:18:52.591Z,69.22
2022-10-14T20:21:20.028Z,69.50
2022-10-14T20:23:47.557Z,71.28
2022-10-14T20:26:20.941Z,76.10
2022-10-14T20:28:49.942Z,79.88
2022-10-14T20:31:20.351Z,76.35
2022-10-14T20:33:48.863Z,73.35
2022-10-14T20:36:21.601Z,65.88
2022-10-14T20:38:50.189Z,69.65
2022-10-14T20:41:26.067Z,65.40
2022-10-14T20:43:55.096Z,62.47
2022-10-14T20:46:24.117Z,65.32
2022-10-14T20:48:55.779Z,68.45
2022-10-14T20:51:23.385Z,70.35
2022-10-14T20:53:58.480Z,63.92
2022-10-14T20:56:31.479Z,79.97
2022-10-14T20:59:00.887Z,67.70
2022-10-14T21:01:29.859Z,66.82
2022-10-14T21:04:01.586Z,84.72
2022-10-14T21:06:29.325Z,81.72
2022-10-14T21:08:58.571Z,78.30
2022-10-14T21:11:27.890Z,79.70
2022-10-14T21:13:58.358Z,85.10
2022-10-14T21:16:34.537Z,84.90
2022-10-14T21:19:05.006Z,83.57
2022-10-14T21:21:45.352Z,65.82
2022-10-14T21:24:16.906Z,82.72
2022-10-14T21:26:50.127Z,82.43
2022-10-14T21:29:21.606Z,80.72
2022-10-14T21:31:49.758Z,81.83
2022-10-14T21:34:17.242Z,80.97
2022-10-14T21:36:44.948Z,86.85
2022-10-14T21:39:17.893Z,84.00
2022-10-14T21:41:45.981Z,83.38
2022-10-14T21:44:16.552Z,85.35
2022-10-14T21:46:44.426Z,87.80
2022-10-14T21:49:12.659Z,90.80
2022-10-14T21:51:40.480Z,83.47
2022-10-14T21:54:10.832Z,83.78
2022-10-14T21:56:39.293Z,89.97
2022-10-14T21:59:07.313Z,84.90
2022-10-14T22:01:34.836Z,101.05
2022-10-14T22:04:04.768Z,81.55
2022-10-14T22:06:34.629Z,80.93
2022-10-14T22:09:04.441Z,83.65
2022-10-14T22:11:34.878Z,78.75
2022-10-14T22:14:04.291Z,86.60
2022-10-14T22:16:32.084Z,89.30
2022-10-14T22:19:01.566Z,86.85
2022-10-14T22:21:31.794Z,82.70
2022-10-14T22:23:59.778Z,84.82
2022-10-14T22:26:29.230Z,80.32
2022-10-14T22:29:10.551Z,86.00
2022-10-14T22:31:38.248Z,84.97
2022-10-14T22:34:07.444Z,86.53
2022-10-14T22:36:35.503Z,88.93
2022-10-14T22:39:06.656Z,79.38
2022-10-14T22:41:35.909Z,84.57
2022-10-14T22:44:05.388Z,87.70
2022-10-14T22:46:35.442Z,80.82
2022-10-14T22:49:03.529Z,99.97
2022-10-14T22:51:36.595Z,86.65
2022-10-14T22:54:04.352Z,92.38
2022-10-14T22:56:32.708Z,86.10
2022-10-14T22:59:11.591Z,91.30
2022-10-14T23:01:41.464Z,85.47
2022-10-14T23:04:10.631Z,86.70
2022-10-14T23:06:39.308Z,87.60
2022-10-14T23:09:06.829Z,79.70
2022-10-14T23:11:34.284Z,79.80
2022-10-14T23:14:04.638Z,77.95
2022-10-14T23:16:35.497Z,84.28
2022-10-14T23:19:03.239Z,86.68
2022-10-14T23:21:35.376Z,83.38
2022-10-14T23:24:06.455Z,86.60
2022-10-14T23:26:35.191Z,79.45
2022-10-14T23:29:06.236Z,85.38
2022-10-14T23:31:35.994Z,82.70
2022-10-14T23:34:10.319Z,78.32
2022-10-14T23:36:37.833Z,82.78
2022-10-14T23:39:05.456Z,74.15
2022-10-14T23:41:33.117Z,80.18
2022-10-14T23:44:00.669Z,78.32
2022-10-14T23:46:28.076Z,84.85
2022-10-14T23:49:06.712Z,74.25
2022-10-14T23:51:35.122Z,82.70
2022-10-14T23:54:02.839Z,83.57
2022-10-14T23:56:30.321Z,75.35
2022-10-14T23:58:57.757Z,82.10
